sensor_id;sensor_type;location;lat;lon;timestamp;P1;durP1;ratioP1;P2;durP2;ratioP2
47812;SDS011;34221;45.296;9.516;2023-03-02T00:00:09;17.55;;;14.18;;
47812;SDS011;34221;45.296;9.516;2023-03-02T00:00:29;18.77;;;14.73;;
47812;SDS011;34221;45.296;9.516;2023-03-02T00:00:45;18.75;;;14.27;;
47812;SDS011;34221;45.296;9.516;2023-03-02T00:01:05;17.25;;;13.65;;
47812;SDS011;34221;45.296;9.516;2023-03-02T00:01:23;19.08;;;14.60;;
47812;SDS011;34221;45.296;9.516;2023-03-02T00:02:14;17.25;;;14.13;;
47812;SDS011;34221;45.296;9.516;2023-03-02T00:02:32;18.27;;;13.82;;
47812;SDS011;34221;45.296;9.516;2023-03-02T00:02:47;18.30;;;14.20;;
47812;SDS011;34221;45.296;9.516;2023-03-02T00:03:02;19.10;;;14.73;;
47812;SDS011;34221;45.296;9.516;2023-03-02T00:03:18;20.00;;;15.48;;
47812;SDS011;34221;45.296;9.516;2023-03-02T00:03:36;19.10;;;15.68;;
47812;SDS011;34221;45.296;9.516;2023-03-02T00:03:54;18.00;;;14.90;;
47812;SDS011;34221;45.296;9.516;2023-03-02T00:04:13;19.67;;;14.85;;
47812;SDS011;34221;45.296;9.516;2023-03-02T00:04:42;20.27;;;15.27;;
47812;SDS011;34221;45.296;9.516;2023-03-02T00:05:02;21.13;;;15.25;;
47812;SDS011;34221;45.296;9.516;2023-03-02T00:05:17;19.88;;;15.57;;
47812;SDS011;34221;45.296;9.516;2023-03-02T00:05:32;20.23;;;15.77;;
47812;SDS011;34221;45.296;9.516;2023-03-02T00:05:48;19.70;;;15.25;;
47812;SDS011;34221;45.296;9.516;2023-03-02T00:06:03;18.23;;;14.95;;
47812;SDS011;34221;45.296;9.516;2023-03-02T00:06:18;17.92;;;14.90;;
47812;SDS011;34221;45.296;9.516;2023-03-02T00:06:33;19.05;;;15.43;;
47812;SDS011;34221;45.296;9.516;2023-03-02T00:06:50;19.77;;;15.68;;
47812;SDS011;34221;45.296;9.516;2023-03-02T00:07:10;19.08;;;15.75;;
47812;SDS011;34221;45.296;9.516;2023-03-02T00:07:31;18.98;;;16.02;;
47812;SDS011;34221;45.296;9.516;2023-03-02T00:07:48;21.38;;;16.45;;
47812;SDS011;34221;45.296;9.516;2023-03-02T00:08:03;20.90;;;15.52;;
47812;SDS011;34221;45.296;9.516;2023-03-02T00:08:18;20.83;;;15.57;;
47812;SDS011;34221;45.296;9.516;2023-03-02T00:08:33;19.73;;;15.35;;
47812;SDS011;34221;45.296;9.516;2023-03-02T00:08:49;19.40;;;15.45;;
47812;SDS011;34221;45.296;9.516;2023-03-02T00:09:05;19.73;;;15.45;;
47812;SDS011;34221;45.296;9.516;2023-03-02T00:09:20;18.83;;;14.97;;
47812;SDS011;34221;45.296;9.516;2023-03-02T00:09:35;19.08;;;15.25;;
47812;SDS011;34221;45.296;9.516;2023-03-02T00:09:52;21.05;;;16.15;;
47812;SDS011;34221;45.296;9.516;2023-03-02T00:10:07;21.52;;;16.50;;
47812;SDS011;34221;45.296;9.516;2023-03-02T00:10:23;20.30;;;16.50;;
47812;SDS011;34221;45.296;9.516;2023-03-02T00:10:38;19.50;;;16.25;;
47812;SDS011;34221;45.296;9.516;2023-03-02T00:10:54;20.50;;;16.50;;
47812;SDS011;34221;45.296;9.516;2023-03-02T00:11:11;20.90;;;17.23;;
47812;SDS011;34221;45.296;9.516;2023-03-02T00:11:28;19.85;;;16.02;;
47812;SDS011;34221;45.296;9.516;2023-03-02T00:11:45;19.73;;;15.85;;
47812;SDS011;34221;45.296;9.516;2023-03-02T00:12:00;20.98;;;17.02;;
47812;SDS011;34221;45.296;9.516;2023-03-02T00:12:18;21.27;;;16.48;;
47812;SDS011;34221;45.296;9.516;2023-03-02T00:12:33;21.25;;;16.90;;
47812;SDS011;34221;45.296;9.516;2023-03-02T00:12:48;22.13;;;18.05;;
47812;SDS011;34221;45.296;9.516;2023-03-02T00:13:03;21.20;;;17.08;;
47812;SDS011;34221;45.296;9.516;2023-03-02T00:13:18;21.20;;;16.63;;
47812;SDS011;34221;45.296;9.516;2023-03-02T00:13:34;21.88;;;17.05;;
47812;SDS011;34221;45.296;9.516;2023-03-02T00:13:50;21.35;;;16.60;;
47812;SDS011;34221;45.296;9.516;2023-03-02T00:14:05;20.58;;;16.48;;
47812;SDS011;34221;45.296;9.516;2023-03-02T00:14:20;19.75;;;16.10;;
47812;SDS011;34221;45.296;9.516;2023-03-02T00:14:35;20.38;;;16.15;;
47812;SDS011;34221;45.296;9.516;2023-03-02T00:14:51;20.55;;;16.75;;
47812;SDS011;34221;45.296;9.516;2023-03-02T00:15:06;20.77;;;17.05;;
47812;SDS011;34221;45.296;9.516;2023-03-02T00:15:22;20.40;;;16.52;;
47812;SDS011;34221;45.296;9.516;2023-03-02T00:15:37;20.45;;;16.20;;
47812;SDS011;34221;45.296;9.516;2023-03-02T00:15:52;20.58;;;16.52;;
47812;SDS011;34221;45.296;9.516;2023-03-02T00:16:06;21.10;;;16.85;;
47812;SDS011;34221;45.296;9.516;2023-03-02T00:16:21;21.17;;;16.58;;
47812;SDS011;34221;45.296;9.516;2023-03-02T00:16:36;20.83;;;16.40;;
47812;SDS011;34221;45.296;9.516;2023-03-02T00:16:53;21.05;;;16.33;;
47812;SDS011;34221;45.296;9.516;2023-03-02T00:17:08;21.40;;;16.30;;
47812;SDS011;34221;45.296;9.516;2023-03-02T00:17:23;21.52;;;16.77;;
47812;SDS011;34221;45.296;9.516;2023-03-02T00:17:41;21.85;;;17.05;;
47812;SDS011;34221;45.296;9.516;2023-03-02T00:17:56;23.10;;;17.38;;
47812;SDS011;34221;45.296;9.516;2023-03-02T00:18:11;22.67;;;17.40;;
47812;SDS011;34221;45.296;9.516;2023-03-02T00:18:26;21.58;;;17.33;;
47812;SDS011;34221;45.296;9.516;2023-03-02T00:18:41;21.75;;;17.08;;
47812;SDS011;34221;45.296;9.516;2023-03-02T00:18:56;22.35;;;16.48;;
47812;SDS011;34221;45.296;9.516;2023-03-02T00:19:11;22.83;;;16.73;;
47812;SDS011;34221;45.296;9.516;2023-03-02T00:19:26;21.08;;;16.80;;
47812;SDS011;34221;45.296;9.516;2023-03-02T00:19:41;20.48;;;16.70;;
47812;SDS011;34221;45.296;9.516;2023-03-02T00:19:57;21.27;;;16.92;;
47812;SDS011;34221;45.296;9.516;2023-03-02T00:20:25;20.58;;;16.80;;
47812;SDS011;34221;45.296;9.516;2023-03-02T00:20:40;22.60;;;17.00;;
47812;SDS011;34221;45.296;9.516;2023-03-02T00:20:55;23.92;;;17.95;;
47812;SDS011;34221;45.296;9.516;2023-03-02T00:21:10;22.35;;;17.42;;
47812;SDS011;34221;45.296;9.516;2023-03-02T00:21:24;23.13;;;17.63;;
47812;SDS011;34221;45.296;9.516;2023-03-02T00:21:39;25.08;;;18.33;;
47812;SDS011;34221;45.296;9.516;2023-03-02T00:21:55;24.92;;;18.00;;
47812;SDS011;34221;45.296;9.516;2023-03-02T00:22:09;23.48;;;17.92;;
47812;SDS011;34221;45.296;9.516;2023-03-02T00:22:24;21.35;;;16.90;;
47812;SDS011;34221;45.296;9.516;2023-03-02T00:22:41;21.05;;;16.63;;
47812;SDS011;34221;45.296;9.516;2023-03-02T00:22:57;21.20;;;16.90;;
47812;SDS011;34221;45.296;9.516;2023-03-02T00:23:13;22.40;;;17.83;;
47812;SDS011;34221;45.296;9.516;2023-03-02T00:23:28;23.25;;;18.38;;
47812;SDS011;34221;45.296;9.516;2023-03-02T00:23:43;22.70;;;17.58;;
47812;SDS011;34221;45.296;9.516;2023-03-02T00:23:58;21.95;;;17.35;;
47812;SDS011;34221;45.296;9.516;2023-03-02T00:24:13;22.80;;;18.25;;
47812;SDS011;34221;45.296;9.516;2023-03-02T00:24:28;23.45;;;18.25;;
47812;SDS011;34221;45.296;9.516;2023-03-02T00:24:44;21.95;;;17.25;;
47812;SDS011;34221;45.296;9.516;2023-03-02T00:24:58;20.40;;;16.70;;
47812;SDS011;34221;45.296;9.516;2023-03-02T00:25:14;19.85;;;16.60;;
47812;SDS011;34221;45.296;9.516;2023-03-02T00:25:30;21.25;;;16.75;;
47812;SDS011;34221;45.296;9.516;2023-03-02T00:25:44;23.00;;;17.08;;
47812;SDS011;34221;45.296;9.516;2023-03-02T00:25:59;22.58;;;17.05;;
47812;SDS011;34221;45.296;9.516;2023-03-02T00:26:14;23.38;;;17.48;;
47812;SDS011;34221;45.296;9.516;2023-03-02T00:26:31;23.35;;;17.60;;
47812;SDS011;34221;45.296;9.516;2023-03-02T00:26:49;21.75;;;16.95;;
47812;SDS011;34221;45.296;9.516;2023-03-02T00:27:04;22.90;;;17.88;;
47812;SDS011;34221;45.296;9.516;2023-03-02T00:27:19;21.77;;;17.58;;
47812;SDS011;34221;45.296;9.516;2023-03-02T00:27:35;21.08;;;17.05;;
47812;SDS011;34221;45.296;9.516;2023-03-02T00:27:51;22.40;;;17.52;;
47812;SDS011;34221;45.296;9.516;2023-03-02T00:28:06;23.55;;;18.02;;
47812;SDS011;34221;45.296;9.516;2023-03-02T00:28:21;22.27;;;17.57;;
47812;SDS011;34221;45.296;9.516;2023-03-02T00:28:36;20.90;;;17.10;;
47812;SDS011;34221;45.296;9.516;2023-03-02T00:28:51;24.67;;;18.30;;
47812;SDS011;34221;45.296;9.516;2023-03-02T00:29:06;24.52;;;18.13;;
47812;SDS011;34221;45.296;9.516;2023-03-02T00:29:21;24.17;;;18.40;;
47812;SDS011;34221;45.296;9.516;2023-03-02T00:29:36;26.75;;;18.67;;
47812;SDS011;34221;45.296;9.516;2023-03-02T00:29:51;26.38;;;18.17;;
47812;SDS011;34221;45.296;9.516;2023-03-02T00:30:06;24.38;;;18.08;;
47812;SDS011;34221;45.296;9.516;2023-03-02T00:30:23;22.65;;;17.40;;
47812;SDS011;34221;45.296;9.516;2023-03-02T00:30:38;24.55;;;18.08;;
47812;SDS011;34221;45.296;9.516;2023-03-02T00:30:53;24.17;;;18.23;;
47812;SDS011;34221;45.296;9.516;2023-03-02T00:31:08;22.67;;;17.77;;
47812;SDS011;34221;45.296;9.516;2023-03-02T00:31:23;22.10;;;17.83;;
47812;SDS011;34221;45.296;9.516;2023-03-02T00:31:38;21.88;;;17.90;;
47812;SDS011;34221;45.296;9.516;2023-03-02T00:31:53;21.77;;;17.48;;
47812;SDS011;34221;45.296;9.516;2023-03-02T00:32:08;20.95;;;16.80;;
47812;SDS011;34221;45.296;9.516;2023-03-02T00:32:25;21.17;;;17.00;;
47812;SDS011;34221;45.296;9.516;2023-03-02T00:32:39;22.23;;;17.63;;
47812;SDS011;34221;45.296;9.516;2023-03-02T00:32:54;21.92;;;17.88;;
47812;SDS011;34221;45.296;9.516;2023-03-02T00:33:11;22.25;;;17.65;;
47812;SDS011;34221;45.296;9.516;2023-03-02T00:33:26;23.33;;;17.77;;
47812;SDS011;34221;45.296;9.516;2023-03-02T00:33:41;23.27;;;18.00;;
47812;SDS011;34221;45.296;9.516;2023-03-02T00:33:56;21.92;;;17.33;;
47812;SDS011;34221;45.296;9.516;2023-03-02T00:34:11;22.50;;;17.35;;
47812;SDS011;34221;45.296;9.516;2023-03-02T00:34:26;21.98;;;17.48;;
47812;SDS011;34221;45.296;9.516;2023-03-02T00:34:40;22.00;;;17.53;;
47812;SDS011;34221;45.296;9.516;2023-03-02T00:34:55;25.10;;;17.90;;
47812;SDS011;34221;45.296;9.516;2023-03-02T00:35:11;25.30;;;18.23;;
47812;SDS011;34221;45.296;9.516;2023-03-02T00:35:26;23.77;;;18.15;;
47812;SDS011;34221;45.296;9.516;2023-03-02T00:35:41;24.67;;;18.85;;
47812;SDS011;34221;45.296;9.516;2023-03-02T00:35:56;24.27;;;19.23;;
47812;SDS011;34221;45.296;9.516;2023-03-02T00:36:17;23.40;;;19.08;;
47812;SDS011;34221;45.296;9.516;2023-03-02T00:36:33;22.60;;;18.55;;
47812;SDS011;34221;45.296;9.516;2023-03-02T00:36:48;21.42;;;18.25;;
47812;SDS011;34221;45.296;9.516;2023-03-02T00:37:03;21.70;;;18.15;;
47812;SDS011;34221;45.296;9.516;2023-03-02T00:37:18;21.63;;;17.33;;
47812;SDS011;34221;45.296;9.516;2023-03-02T00:37:34;21.55;;;17.40;;
47812;SDS011;34221;45.296;9.516;2023-03-02T00:37:49;21.77;;;17.63;;
47812;SDS011;34221;45.296;9.516;2023-03-02T00:38:05;22.35;;;17.55;;
47812;SDS011;34221;45.296;9.516;2023-03-02T00:38:20;24.23;;;18.13;;
47812;SDS011;34221;45.296;9.516;2023-03-02T00:38:35;24.90;;;18.40;;
47812;SDS011;34221;45.296;9.516;2023-03-02T00:38:50;23.85;;;18.45;;
47812;SDS011;34221;45.296;9.516;2023-03-02T00:39:05;23.30;;;18.25;;
47812;SDS011;34221;45.296;9.516;2023-03-02T00:39:20;24.90;;;19.02;;
47812;SDS011;34221;45.296;9.516;2023-03-02T00:39:35;24.80;;;18.67;;
47812;SDS011;34221;45.296;9.516;2023-03-02T00:39:51;22.58;;;17.83;;
47812;SDS011;34221;45.296;9.516;2023-03-02T00:40:07;22.40;;;18.02;;
47812;SDS011;34221;45.296;9.516;2023-03-02T00:40:23;22.83;;;17.73;;
47812;SDS011;34221;45.296;9.516;2023-03-02T00:40:42;22.10;;;17.40;;
47812;SDS011;34221;45.296;9.516;2023-03-02T00:41:05;23.40;;;18.15;;
47812;SDS011;34221;45.296;9.516;2023-03-02T00:41:20;22.17;;;18.35;;
47812;SDS011;34221;45.296;9.516;2023-03-02T00:41:35;23.00;;;18.67;;
47812;SDS011;34221;45.296;9.516;2023-03-02T00:41:50;25.13;;;19.35;;
47812;SDS011;34221;45.296;9.516;2023-03-02T00:42:05;24.90;;;19.38;;
47812;SDS011;34221;45.296;9.516;2023-03-02T00:42:20;22.73;;;18.75;;
47812;SDS011;34221;45.296;9.516;2023-03-02T00:42:36;21.73;;;17.92;;
47812;SDS011;34221;45.296;9.516;2023-03-02T00:42:51;23.40;;;17.98;;
47812;SDS011;34221;45.296;9.516;2023-03-02T00:43:07;25.35;;;18.67;;
47812;SDS011;34221;45.296;9.516;2023-03-02T00:43:21;25.88;;;19.13;;
47812;SDS011;34221;45.296;9.516;2023-03-02T00:43:41;25.05;;;18.77;;
47812;SDS011;34221;45.296;9.516;2023-03-02T00:43:56;24.42;;;18.33;;
47812;SDS011;34221;45.296;9.516;2023-03-02T00:44:11;24.63;;;18.98;;
47812;SDS011;34221;45.296;9.516;2023-03-02T00:44:30;24.73;;;19.13;;
47812;SDS011;34221;45.296;9.516;2023-03-02T00:44:45;22.75;;;18.58;;
47812;SDS011;34221;45.296;9.516;2023-03-02T00:45:00;22.50;;;18.80;;
47812;SDS011;34221;45.296;9.516;2023-03-02T00:45:17;22.90;;;18.98;;
47812;SDS011;34221;45.296;9.516;2023-03-02T00:45:32;23.23;;;19.20;;
47812;SDS011;34221;45.296;9.516;2023-03-02T00:45:47;22.73;;;18.27;;
47812;SDS011;34221;45.296;9.516;2023-03-02T00:46:11;21.90;;;17.85;;
47812;SDS011;34221;45.296;9.516;2023-03-02T00:46:29;23.55;;;18.73;;
47812;SDS011;34221;45.296;9.516;2023-03-02T00:46:44;22.83;;;18.98;;
47812;SDS011;34221;45.296;9.516;2023-03-02T00:46:59;22.85;;;19.02;;
47812;SDS011;34221;45.296;9.516;2023-03-02T00:47:14;23.52;;;18.25;;
47812;SDS011;34221;45.296;9.516;2023-03-02T00:47:29;23.10;;;17.88;;
47812;SDS011;34221;45.296;9.516;2023-03-02T00:47:47;25.90;;;19.08;;
47812;SDS011;34221;45.296;9.516;2023-03-02T00:48:02;27.02;;;19.17;;
47812;SDS011;34221;45.296;9.516;2023-03-02T00:48:17;23.58;;;18.75;;
47812;SDS011;34221;45.296;9.516;2023-03-02T00:48:32;22.83;;;18.53;;
47812;SDS011;34221;45.296;9.516;2023-03-02T00:48:47;24.60;;;18.83;;
47812;SDS011;34221;45.296;9.516;2023-03-02T00:49:02;24.08;;;18.77;;
47812;SDS011;34221;45.296;9.516;2023-03-02T00:49:17;22.73;;;18.75;;
47812;SDS011;34221;45.296;9.516;2023-03-02T00:49:32;21.77;;;18.05;;
47812;SDS011;34221;45.296;9.516;2023-03-02T00:49:48;22.35;;;17.27;;
47812;SDS011;34221;45.296;9.516;2023-03-02T00:50:03;21.23;;;16.67;;
47812;SDS011;34221;45.296;9.516;2023-03-02T00:50:20;21.98;;;17.52;;
47812;SDS011;34221;45.296;9.516;2023-03-02T00:50:35;24.02;;;18.83;;
47812;SDS011;34221;45.296;9.516;2023-03-02T00:50:54;24.23;;;19.00;;
47812;SDS011;34221;45.296;9.516;2023-03-02T00:51:09;23.90;;;18.33;;
47812;SDS011;34221;45.296;9.516;2023-03-02T00:51:24;26.52;;;19.08;;
47812;SDS011;34221;45.296;9.516;2023-03-02T00:51:39;27.08;;;19.83;;
47812;SDS011;34221;45.296;9.516;2023-03-02T00:51:54;24.92;;;19.25;;
47812;SDS011;34221;45.296;9.516;2023-03-02T00:52:09;27.15;;;19.63;;
47812;SDS011;34221;45.296;9.516;2023-03-02T00:52:24;26.83;;;19.73;;
47812;SDS011;34221;45.296;9.516;2023-03-02T00:52:39;23.60;;;18.90;;
47812;SDS011;34221;45.296;9.516;2023-03-02T00:52:54;22.38;;;18.67;;
47812;SDS011;34221;45.296;9.516;2023-03-02T00:53:09;22.45;;;18.35;;
47812;SDS011;34221;45.296;9.516;2023-03-02T00:53:24;23.63;;;18.40;;
47812;SDS011;34221;45.296;9.516;2023-03-02T00:53:39;24.20;;;18.48;;
47812;SDS011;34221;45.296;9.516;2023-03-02T00:53:54;23.90;;;18.73;;
47812;SDS011;34221;45.296;9.516;2023-03-02T00:54:09;23.75;;;18.77;;
47812;SDS011;34221;45.296;9.516;2023-03-02T00:54:24;23.42;;;18.60;;
47812;SDS011;34221;45.296;9.516;2023-03-02T00:54:39;24.00;;;19.13;;
47812;SDS011;34221;45.296;9.516;2023-03-02T00:54:54;25.48;;;19.90;;
47812;SDS011;34221;45.296;9.516;2023-03-02T00:55:09;25.60;;;20.10;;
47812;SDS011;34221;45.296;9.516;2023-03-02T00:55:24;26.95;;;20.33;;
47812;SDS011;34221;45.296;9.516;2023-03-02T00:55:40;27.55;;;19.88;;
47812;SDS011;34221;45.296;9.516;2023-03-02T00:55:55;26.03;;;19.37;;
47812;SDS011;34221;45.296;9.516;2023-03-02T00:56:11;25.27;;;19.63;;
47812;SDS011;34221;45.296;9.516;2023-03-02T00:56:30;23.70;;;18.98;;
47812;SDS011;34221;45.296;9.516;2023-03-02T00:56:45;24.38;;;19.75;;
47812;SDS011;34221;45.296;9.516;2023-03-02T00:57:00;25.67;;;20.00;;
47812;SDS011;34221;45.296;9.516;2023-03-02T00:57:15;24.00;;;19.23;;
47812;SDS011;34221;45.296;9.516;2023-03-02T00:57:30;25.05;;;19.70;;
47812;SDS011;34221;45.296;9.516;2023-03-02T00:57:45;27.58;;;20.48;;
47812;SDS011;34221;45.296;9.516;2023-03-02T00:58:10;26.80;;;20.13;;
47812;SDS011;34221;45.296;9.516;2023-03-02T00:58:26;24.77;;;20.02;;
47812;SDS011;34221;45.296;9.516;2023-03-02T00:58:41;25.70;;;20.40;;
47812;SDS011;34221;45.296;9.516;2023-03-02T00:58:57;27.38;;;20.60;;
47812;SDS011;34221;45.296;9.516;2023-03-02T00:59:12;25.58;;;19.50;;
47812;SDS011;34221;45.296;9.516;2023-03-02T00:59:45;22.77;;;18.77;;
47812;SDS011;34221;45.296;9.516;2023-03-02T01:00:14;24.52;;;19.27;;
47812;SDS011;34221;45.296;9.516;2023-03-02T01:00:32;24.45;;;19.10;;
47812;SDS011;34221;45.296;9.516;2023-03-02T01:00:53;25.23;;;19.63;;
47812;SDS011;34221;45.296;9.516;2023-03-02T01:01:09;26.02;;;19.65;;
47812;SDS011;34221;45.296;9.516;2023-03-02T01:01:30;26.20;;;19.90;;
47812;SDS011;34221;45.296;9.516;2023-03-02T01:01:45;24.88;;;19.83;;
47812;SDS011;34221;45.296;9.516;2023-03-02T01:02:12;26.70;;;19.88;;
47812;SDS011;34221;45.296;9.516;2023-03-02T01:02:28;25.92;;;19.42;;
47812;SDS011;34221;45.296;9.516;2023-03-02T01:02:43;27.55;;;19.73;;
47812;SDS011;34221;45.296;9.516;2023-03-02T01:03:00;26.05;;;19.05;;
47812;SDS011;34221;45.296;9.516;2023-03-02T01:03:15;23.70;;;19.10;;
47812;SDS011;34221;45.296;9.516;2023-03-02T01:03:30;24.25;;;20.10;;
47812;SDS011;34221;45.296;9.516;2023-03-02T01:03:45;23.25;;;19.77;;
47812;SDS011;34221;45.296;9.516;2023-03-02T01:04:01;24.63;;;20.08;;
47812;SDS011;34221;45.296;9.516;2023-03-02T01:04:16;25.40;;;19.50;;
47812;SDS011;34221;45.296;9.516;2023-03-02T01:04:32;22.92;;;18.58;;
47812;SDS011;34221;45.296;9.516;2023-03-02T01:04:55;24.60;;;19.08;;
47812;SDS011;34221;45.296;9.516;2023-03-02T01:05:10;26.20;;;19.27;;
47812;SDS011;34221;45.296;9.516;2023-03-02T01:05:25;24.40;;;19.00;;
47812;SDS011;34221;45.296;9.516;2023-03-02T01:05:40;24.00;;;19.15;;
47812;SDS011;34221;45.296;9.516;2023-03-02T01:05:55;25.05;;;19.75;;
47812;SDS011;34221;45.296;9.516;2023-03-02T01:06:14;24.38;;;19.60;;
47812;SDS011;34221;45.296;9.516;2023-03-02T01:06:32;23.02;;;18.63;;
47812;SDS011;34221;45.296;9.516;2023-03-02T01:06:47;24.80;;;19.08;;
47812;SDS011;34221;45.296;9.516;2023-03-02T01:07:04;24.85;;;19.40;;
47812;SDS011;34221;45.296;9.516;2023-03-02T01:07:31;24.77;;;19.25;;
47812;SDS011;34221;45.296;9.516;2023-03-02T01:07:46;24.05;;;18.70;;
47812;SDS011;34221;45.296;9.516;2023-03-02T01:08:01;25.27;;;19.35;;
47812;SDS011;34221;45.296;9.516;2023-03-02T01:08:17;25.65;;;20.08;;
47812;SDS011;34221;45.296;9.516;2023-03-02T01:08:32;24.65;;;19.75;;
47812;SDS011;34221;45.296;9.516;2023-03-02T01:08:47;23.80;;;18.95;;
47812;SDS011;34221;45.296;9.516;2023-03-02T01:09:04;23.50;;;19.15;;
47812;SDS011;34221;45.296;9.516;2023-03-02T01:09:19;25.13;;;19.52;;
47812;SDS011;34221;45.296;9.516;2023-03-02T01:09:33;26.85;;;19.90;;
47812;SDS011;34221;45.296;9.516;2023-03-02T01:09:48;25.00;;;19.77;;
47812;SDS011;34221;45.296;9.516;2023-03-02T01:10:04;24.33;;;19.25;;
47812;SDS011;34221;45.296;9.516;2023-03-02T01:10:20;25.08;;;19.90;;
47812;SDS011;34221;45.296;9.516;2023-03-02T01:10:34;25.80;;;20.10;;
47812;SDS011;34221;45.296;9.516;2023-03-02T01:10:50;26.00;;;20.00;;
47812;SDS011;34221;45.296;9.516;2023-03-02T01:11:13;23.35;;;19.50;;
47812;SDS011;34221;45.296;9.516;2023-03-02T01:11:33;21.70;;;17.95;;
47812;SDS011;34221;45.296;9.516;2023-03-02T01:11:48;24.03;;;19.03;;
47812;SDS011;34221;45.296;9.516;2023-03-02T01:12:03;27.98;;;20.42;;
47812;SDS011;34221;45.296;9.516;2023-03-02T01:12:22;27.13;;;20.27;;
47812;SDS011;34221;45.296;9.516;2023-03-02T01:12:37;27.03;;;20.70;;
47812;SDS011;34221;45.296;9.516;2023-03-02T01:12:52;25.77;;;19.92;;
47812;SDS011;34221;45.296;9.516;2023-03-02T01:13:07;24.98;;;20.02;;
47812;SDS011;34221;45.296;9.516;2023-03-02T01:13:22;25.27;;;20.27;;
47812;SDS011;34221;45.296;9.516;2023-03-02T01:13:38;24.30;;;19.40;;
47812;SDS011;34221;45.296;9.516;2023-03-02T01:13:53;24.13;;;19.23;;
47812;SDS011;34221;45.296;9.516;2023-03-02T01:14:08;25.27;;;19.65;;
47812;SDS011;34221;45.296;9.516;2023-03-02T01:14:23;25.63;;;18.75;;
47812;SDS011;34221;45.296;9.516;2023-03-02T01:14:40;23.45;;;18.10;;
47812;SDS011;34221;45.296;9.516;2023-03-02T01:14:59;24.42;;;19.00;;
47812;SDS011;34221;45.296;9.516;2023-03-02T01:15:14;26.98;;;20.10;;
47812;SDS011;34221;45.296;9.516;2023-03-02T01:15:29;26.65;;;20.42;;
47812;SDS011;34221;45.296;9.516;2023-03-02T01:15:46;27.67;;;20.20;;
47812;SDS011;34221;45.296;9.516;2023-03-02T01:16:01;27.30;;;20.48;;
47812;SDS011;34221;45.296;9.516;2023-03-02T01:16:17;25.60;;;20.67;;
47812;SDS011;34221;45.296;9.516;2023-03-02T01:16:32;27.63;;;21.17;;
47812;SDS011;34221;45.296;9.516;2023-03-02T01:16:47;27.15;;;21.42;;
47812;SDS011;34221;45.296;9.516;2023-03-02T01:17:03;25.30;;;20.30;;
47812;SDS011;34221;45.296;9.516;2023-03-02T01:17:20;27.65;;;21.00;;
47812;SDS011;34221;45.296;9.516;2023-03-02T01:17:36;26.77;;;20.48;;
47812;SDS011;34221;45.296;9.516;2023-03-02T01:17:52;25.33;;;20.10;;
47812;SDS011;34221;45.296;9.516;2023-03-02T01:18:08;26.40;;;20.85;;
47812;SDS011;34221;45.296;9.516;2023-03-02T01:18:23;25.48;;;20.13;;
47812;SDS011;34221;45.296;9.516;2023-03-02T01:18:38;26.45;;;20.33;;
47812;SDS011;34221;45.296;9.516;2023-03-02T01:18:53;27.02;;;21.25;;
47812;SDS011;34221;45.296;9.516;2023-03-02T01:19:08;25.92;;;21.35;;
47812;SDS011;34221;45.296;9.516;2023-03-02T01:19:23;25.17;;;20.85;;
47812;SDS011;34221;45.296;9.516;2023-03-02T01:19:39;27.48;;;21.13;;
47812;SDS011;34221;45.296;9.516;2023-03-02T01:19:55;27.83;;;21.40;;
47812;SDS011;34221;45.296;9.516;2023-03-02T01:20:10;26.52;;;21.08;;
47812;SDS011;34221;45.296;9.516;2023-03-02T01:20:26;27.20;;;20.98;;
47812;SDS011;34221;45.296;9.516;2023-03-02T01:20:41;25.80;;;21.02;;
47812;SDS011;34221;45.296;9.516;2023-03-02T01:21:00;24.67;;;20.60;;
47812;SDS011;34221;45.296;9.516;2023-03-02T01:21:17;24.77;;;19.40;;
47812;SDS011;34221;45.296;9.516;2023-03-02T01:21:32;23.97;;;19.37;;
47812;SDS011;34221;45.296;9.516;2023-03-02T01:21:47;24.67;;;19.67;;
47812;SDS011;34221;45.296;9.516;2023-03-02T01:22:02;25.30;;;19.55;;
47812;SDS011;34221;45.296;9.516;2023-03-02T01:22:18;26.23;;;20.55;;
47812;SDS011;34221;45.296;9.516;2023-03-02T01:22:35;27.92;;;21.38;;
47812;SDS011;34221;45.296;9.516;2023-03-02T01:22:50;25.70;;;20.48;;
47812;SDS011;34221;45.296;9.516;2023-03-02T01:23:05;23.70;;;19.63;;
47812;SDS011;34221;45.296;9.516;2023-03-02T01:23:20;25.25;;;20.45;;
47812;SDS011;34221;45.296;9.516;2023-03-02T01:23:35;26.67;;;20.85;;
47812;SDS011;34221;45.296;9.516;2023-03-02T01:23:50;27.10;;;21.10;;
47812;SDS011;34221;45.296;9.516;2023-03-02T01:24:05;26.88;;;20.92;;
47812;SDS011;34221;45.296;9.516;2023-03-02T01:24:20;27.75;;;21.00;;
47812;SDS011;34221;45.296;9.516;2023-03-02T01:24:55;27.75;;;20.95;;
47812;SDS011;34221;45.296;9.516;2023-03-02T01:25:12;27.48;;;20.70;;
47812;SDS011;34221;45.296;9.516;2023-03-02T01:25:27;27.95;;;21.00;;
47812;SDS011;34221;45.296;9.516;2023-03-02T01:26:02;28.05;;;20.92;;
47812;SDS011;34221;45.296;9.516;2023-03-02T01:26:17;27.58;;;20.30;;
47812;SDS011;34221;45.296;9.516;2023-03-02T01:26:32;26.02;;;20.27;;
47812;SDS011;34221;45.296;9.516;2023-03-02T01:26:47;25.95;;;20.90;;
47812;SDS011;34221;45.296;9.516;2023-03-02T01:27:02;26.65;;;21.05;;
47812;SDS011;34221;45.296;9.516;2023-03-02T01:27:17;27.17;;;20.77;;
47812;SDS011;34221;45.296;9.516;2023-03-02T01:27:33;26.60;;;20.77;;
47812;SDS011;34221;45.296;9.516;2023-03-02T01:27:48;26.60;;;21.00;;
47812;SDS011;34221;45.296;9.516;2023-03-02T01:28:03;28.48;;;21.13;;
47812;SDS011;34221;45.296;9.516;2023-03-02T01:28:18;28.50;;;21.13;;
47812;SDS011;34221;45.296;9.516;2023-03-02T01:28:34;25.77;;;20.67;;
47812;SDS011;34221;45.296;9.516;2023-03-02T01:28:49;25.30;;;19.92;;
47812;SDS011;34221;45.296;9.516;2023-03-02T01:29:08;25.33;;;19.88;;
47812;SDS011;34221;45.296;9.516;2023-03-02T01:29:25;25.83;;;20.98;;
47812;SDS011;34221;45.296;9.516;2023-03-02T01:29:40;27.85;;;21.35;;
47812;SDS011;34221;45.296;9.516;2023-03-02T01:29:55;27.98;;;21.20;;
47812;SDS011;34221;45.296;9.516;2023-03-02T01:30:10;27.55;;;21.48;;
47812;SDS011;34221;45.296;9.516;2023-03-02T01:30:25;26.80;;;21.85;;
47812;SDS011;34221;45.296;9.516;2023-03-02T01:30:40;27.42;;;21.67;;
47812;SDS011;34221;45.296;9.516;2023-03-02T01:30:56;28.08;;;21.58;;
47812;SDS011;34221;45.296;9.516;2023-03-02T01:31:14;28.42;;;21.50;;
47812;SDS011;34221;45.296;9.516;2023-03-02T01:31:29;28.35;;;21.73;;
47812;SDS011;34221;45.296;9.516;2023-03-02T01:31:44;29.45;;;22.45;;
47812;SDS011;34221;45.296;9.516;2023-03-02T01:31:59;29.58;;;22.20;;
47812;SDS011;34221;45.296;9.516;2023-03-02T01:32:15;28.30;;;21.48;;
47812;SDS011;34221;45.296;9.516;2023-03-02T01:32:30;25.92;;;20.48;;
47812;SDS011;34221;45.296;9.516;2023-03-02T01:32:45;26.05;;;20.67;;
47812;SDS011;34221;45.296;9.516;2023-03-02T01:33:01;27.63;;;21.02;;
47812;SDS011;34221;45.296;9.516;2023-03-02T01:33:16;27.05;;;20.90;;
47812;SDS011;34221;45.296;9.516;2023-03-02T01:33:31;27.48;;;21.17;;
47812;SDS011;34221;45.296;9.516;2023-03-02T01:33:46;27.88;;;21.60;;
47812;SDS011;34221;45.296;9.516;2023-03-02T01:34:01;26.70;;;21.45;;
47812;SDS011;34221;45.296;9.516;2023-03-02T01:34:16;26.52;;;21.38;;
47812;SDS011;34221;45.296;9.516;2023-03-02T01:34:31;30.13;;;22.58;;
47812;SDS011;34221;45.296;9.516;2023-03-02T01:34:47;31.02;;;22.23;;